Agadir Al Massira, Morocco
Current Conditions -  °F | °C
As of 5:00 AM on Saturday 25 Oct 2014 (Local Time) from GMAD Reporting Station
Haze Haze  
Wind Chill: 15°   Ceiling: Unl
Heat Index: 15°   Visibility: 2.5mi
Dew Point: 13°   Wind: 3mph
Humidity: 88%   Direction: 160°SSE
Pressure: 29.94"   Gusts: NA
Location:  30.33°N, 9.4°W
Report Text: GMAD 250400Z 16003KT 4100 BR FEW010 15/13 Q1014 NOSIG
Loading
Personal Weather Stations






























Interactive Weather Map
Tropical Storm Tracking
New forecast layout! Learn more

10-Day Weather Forecast

Advertisements
Track Severe Weather on mobile